ADDS TAF Board (Experimental) INFO Settings
IDs: Format: Expanded Condensed

KSLC - Salt Lake City Intl, UT, US

Issued at 0158 UTC 01 Jul 2016
Updated at 0232 UTC 01 Jul 2016
Time0154Z 01/03Z 01/04Z 01/05Z 01/06Z 01/07Z 01/08Z 01/09Z 01/10Z 01/11Z 01/12Z 01/13Z 01/14Z 01/15Z
Type OBS PRVL PRVL PRVL PRVL PRVL PRVL PRVL PRVL PRVL PRVL PRVL PRVL PRVL
VIS 10 >6 >6 >6 >6 >6 >6 >6 >6 >6 >6 >6 >6 >6
CIG 110 150 150 120 120 120 120 120 120 120 120 120 120 120
Cover BKN BKN BKN BKN BKN BKN BKN BKN BKN BKN BKN BKN BKN BKN
FltCat VFR VFR VFR VFR VFR VFR VFR VFR VFR VFR VFR VFR VFR VFR
WX -- -- -- -- -- -- -- -- -- -- -- -- -- --
WDir 10 330 330 150 150 150 150 150 150 150 150 150 150 150
WSpd 7 12 12 8 8 8 8 8 8 8 8 8 8 8
WGst -- -- -- -- -- -- -- -- -- -- -- -- -- --
R14/32
XWnd 4 -1 -1 0 0 0 0 0 0 0 0 0 0 0
HWnd -6 -12 -12 8 8 8 8 8 8 8 8 8 8 8
R16/34
XWnd 2 -5 -5 3 3 3 3 3 3 3 3 3 3 3
HWnd -7 -11 -11 7 7 7 7 7 7 7 7 7 7 7
R17/35
XWnd 1 -6 -6 4 4 4 4 4 4 4 4 4 4 4
HWnd -7 -10 -10 7 7 7 7 7 7 7 7 7 7 7
RHB/18
XWnd -1 6 6 -4 -4 -4 -4 -4 -4 -4 -4 -4 -4 -4
HWnd 7 10 10 -7 -7 -7 -7 -7 -7 -7 -7 -7 -7 -7

Raw TAF
KSLC 010158Z 0102/0206 33012KT P6SM SCT090 BKN150
  FM010500 15008KT P6SM SCT090 BKN120
  FM011700 32008KT P6SM SCT080 BKN150
  FM012100 35012KT P6SM VCSH SCT080 BKN120
  FM020300 16008KT P6SM SCT080 BKN150


Raw METAR
KSLC 010154Z COR 01007KT 10SM BKN110TCU BKN200 31/11 A2999 RMK AO2 SLP092 T03060106 TCU OHD-SW
KSLC 010054Z 36010KT 10SM SCT110 BKN200 32/08 A2996 RMK AO2 SLP083 TCU DSNT S-SW T03220083
KSLC 302354Z 33012KT 10SM SCT090 SCT200 SCT250 33/09 A2998 RMK AO2 SLP090 CB DSNT NE-E 60001 T03280089 10333 20233 56019

METAR Board
Radar Display
Forecast Discussion

TAF Board Legend

Potential Impact
Threat None Slight Moderate High
Visibility (sm) ≥5.1 5.1>X≥3 3>X≥1 <1
Ceiling (100 ft) ≥30.1 30.1>X≥10 10>X≥5 <5
Wind Speed (kt) <10 10≤X<20 20≤X<30 ≥30
Wind Gust (kt) <15 15≤X<25 25≤X<35 ≥35
Weather No Wx Reported VCTS,-TS,-FZRA,SN TS,FZRA +TS,+FZRA,+SN